széles tamás Creative Commons License 2012.02.02 0 0 1862

2012/02/02 19:30
LZTT 021930Z 28003KT CAVOK M26/M29 Q1025